Time;durP1;ratioP1;P1;durP2;ratioP2;P2;SDS_P1;SDS_P2;PMS_P1;PMS_P2;Temp;Humidity;BMP_temperature;BMP_pressure;BME280_temperature;BME280_humidity;BME280_pressure;Samples;Min_cycle;Max_cycle;Signal;HPM_P1;HPM_P2
2021/01/16 00:00:47;;;;;;;1.15;0.88;;;-0.30;99.90;;;;;;4964865;28;20074;-66
2021/01/16 00:03:15;;;;;;;2.88;0.70;;;-0.30;99.90;;;;;;4963761;28;20156;-64
2021/01/16 00:05:43;;;;;;;2.42;0.70;;;-0.30;99.90;;;;;;4964928;28;20051;-65
2021/01/16 00:08:15;;;;;;;1.73;1.25;;;-0.30;99.90;;;;;;4963722;28;20055;-64
2021/01/16 00:10:53;;;;;;;3.40;0.98;;;-0.30;99.90;;;;;;4962830;28;21410;-65
2021/01/16 00:13:25;;;;;;;1.75;0.90;;;-0.40;99.90;;;;;;4962989;28;20447;-64
2021/01/16 00:15:51;;;;;;;2.47;1.38;;;-0.40;99.90;;;;;;4961394;28;20038;-64
2021/01/16 00:18:23;;;;;;;3.00;1.73;;;-0.50;99.90;;;;;;4964671;28;20062;-64
2021/01/16 00:20:53;;;;;;;4.15;1.40;;;-0.50;99.90;;;;;;4964444;28;20145;-64
2021/01/16 00:23:23;;;;;;;1.77;1.42;;;-0.50;99.90;;;;;;4962639;28;20051;-65
2021/01/16 00:25:50;;;;;;;5.63;1.63;;;-0.60;99.90;;;;;;4964550;28;20055;-64
2021/01/16 00:28:18;;;;;;;1.63;1.17;;;-0.70;99.90;;;;;;4963449;28;20051;-68
2021/01/16 00:30:45;;;;;;;5.20;1.23;;;-0.70;99.90;;;;;;4964507;28;20054;-65
2021/01/16 00:33:25;;;;;;;3.00;1.67;;;-0.80;99.90;;;;;;4964110;28;20055;-66
2021/01/16 00:35:53;;;;;;;2.80;1.58;;;-0.80;99.90;;;;;;4962024;28;20490;-65
2021/01/16 00:38:21;;;;;;;2.80;1.70;;;-0.80;99.90;;;;;;4962691;28;20130;-64
2021/01/16 00:40:47;;;;;;;1.83;1.30;;;-0.70;99.90;;;;;;4964443;28;20070;-64
2021/01/16 00:43:16;;;;;;;2.40;1.25;;;-0.80;99.90;;;;;;4958992;28;20063;-64
2021/01/16 00:45:47;;;;;;;2.03;1.67;;;-0.80;99.90;;;;;;4963988;28;20054;-66
2021/01/16 00:48:15;;;;;;;1.23;1.10;;;-0.90;99.90;;;;;;4964115;28;20552;-66
2021/01/16 00:50:46;;;;;;;3.58;1.58;;;-0.90;99.90;;;;;;4964035;28;20049;-65
2021/01/16 00:53:14;;;;;;;2.42;1.05;;;-0.90;99.90;;;;;;4956592;28;20078;-64
2021/01/16 00:55:55;;;;;;;1.77;1.30;;;-1.00;99.90;;;;;;4964175;28;20061;-65
2021/01/16 00:58:22;;;;;;;1.92;0.93;;;-1.00;99.90;;;;;;4962153;28;20146;-64
2021/01/16 01:01:01;;;;;;;1.98;1.60;;;-1.00;99.90;;;;;;4962182;28;20038;-66
2021/01/16 01:03:32;;;;;;;1.40;1.30;;;-1.00;99.90;;;;;;4961654;28;20137;-65
2021/01/16 01:05:59;;;;;;;2.17;0.95;;;-1.10;99.90;;;;;;4963820;28;20141;-66
2021/01/16 01:08:29;;;;;;;1.98;1.50;;;-1.00;99.90;;;;;;4961361;28;20069;-65
2021/01/16 01:10:57;;;;;;;4.00;1.52;;;-1.00;99.90;;;;;;4961847;28;20542;-65
2021/01/16 01:13:23;;;;;;;1.48;1.30;;;-1.00;99.90;;;;;;4961182;28;20150;-64
2021/01/16 01:15:50;;;;;;;1.92;1.38;;;-1.00;99.90;;;;;;4963422;28;20068;-64
2021/01/16 01:18:17;;;;;;;2.40;1.00;;;-1.00;99.90;;;;;;4963590;28;20042;-66
2021/01/16 01:20:43;;;;;;;3.13;1.42;;;-0.90;99.90;;;;;;4963724;28;20043;-66
2021/01/16 01:23:09;;;;;;;2.53;1.88;;;-1.00;99.90;;;;;;4962599;28;20094;-66
2021/01/16 01:25:36;;;;;;;1.52;1.08;;;-1.00;99.90;;;;;;4962676;28;20451;-64
2021/01/16 01:28:02;;;;;;;2.30;1.40;;;-1.00;99.90;;;;;;4963030;28;20046;-64
2021/01/16 01:30:30;;;;;;;1.95;1.75;;;-1.00;99.90;;;;;;4963362;28;20043;-64
2021/01/16 01:32:58;;;;;;;4.05;1.40;;;-1.00;99.90;;;;;;4963080;28;20043;-64
2021/01/16 01:35:25;;;;;;;3.85;1.92;;;-0.90;99.90;;;;;;4962016;28;20043;-65
2021/01/16 01:37:54;;;;;;;2.22;1.52;;;-0.90;99.90;;;;;;4958609;28;20074;-66
2021/01/16 01:40:40;;;;;;;1.75;1.52;;;-0.90;99.90;;;;;;4963425;28;20058;-67
2021/01/16 01:43:06;;;;;;;4.63;1.60;;;-0.80;99.90;;;;;;4963012;28;20137;-65
2021/01/16 01:45:33;;;;;;;1.92;1.83;;;-0.80;99.90;;;;;;4961998;28;20070;-65
2021/01/16 01:48:01;;;;;;;2.60;1.45;;;-0.80;99.90;;;;;;4962512;28;20042;-64
2021/01/16 01:50:29;;;;;;;2.60;1.77;;;-0.80;99.90;;;;;;4963407;28;20435;-65
2021/01/16 01:52:57;;;;;;;2.55;1.35;;;-0.80;99.90;;;;;;4962552;28;20051;-66
2021/01/16 01:55:24;;;;;;;2.80;1.80;;;-0.80;99.90;;;;;;4961085;28;20121;-64
2021/01/16 01:57:53;;;;;;;3.33;1.65;;;-0.70;99.90;;;;;;4963037;28;20050;-66
2021/01/16 02:00:21;;;;;;;5.63;1.97;;;-0.70;99.90;;;;;;4963561;28;20047;-64
2021/01/16 02:02:49;;;;;;;2.13;1.55;;;-0.70;99.90;;;;;;4963128;28;20471;-66
2021/01/16 02:05:16;;;;;;;2.95;1.80;;;-0.70;99.90;;;;;;4961252;28;20917;-65
2021/01/16 02:07:45;;;;;;;3.53;1.42;;;-0.60;99.90;;;;;;4962516;28;20046;-65
2021/01/16 02:10:23;;;;;;;2.47;1.20;;;-0.60;99.90;;;;;;4962795;28;20466;-67
2021/01/16 02:12:53;;;;;;;3.67;1.45;;;-0.60;99.90;;;;;;4963547;28;20046;-64
2021/01/16 02:15:43;;;;;;;2.42;1.88;;;-0.60;99.90;;;;;;4960766;28;20513;-64
2021/01/16 02:18:27;;;;;;;1.92;1.50;;;-0.60;99.90;;;;;;4959330;28;20069;-64
2021/01/16 02:20:56;;;;;;;4.50;1.88;;;-0.60;99.90;;;;;;4962995;28;20113;-64
2021/01/16 02:23:38;;;;;;;5.45;1.70;;;-0.60;99.90;;;;;;4964857;28;20232;-65
2021/01/16 02:26:16;;;;;;;6.43;1.85;;;-0.60;99.90;;;;;;4964341;28;20039;-67
2021/01/16 02:28:54;;;;;;;1.92;1.33;;;-0.60;99.90;;;;;;4964068;28;20525;-65
2021/01/16 02:31:23;;;;;;;2.88;1.23;;;-0.60;99.90;;;;;;4960132;28;20146;-67
2021/01/16 02:33:52;;;;;;;4.60;1.92;;;-0.60;99.90;;;;;;4965898;28;20043;-64
2021/01/16 02:36:27;;;;;;;3.53;1.83;;;-0.60;99.90;;;;;;4966938;28;20133;-64
2021/01/16 02:39:21;;;;;;;1.73;1.60;;;-0.60;99.90;;;;;;4965355;28;20590;-63
2021/01/16 02:42:29;;;;;;;2.60;1.85;;;-0.60;99.90;;;;;;4964906;28;20054;-65
2021/01/16 02:45:04;;;;;;;3.25;1.95;;;-0.60;99.90;;;;;;4943369;28;20081;-66
2021/01/16 02:48:01;;;;;;;3.30;1.75;;;-0.60;99.90;;;;;;4962373;28;20051;-67
2021/01/16 02:50:28;;;;;;;6.90;2.42;;;-0.60;99.90;;;;;;4961514;28;20069;-67
2021/01/16 02:52:57;;;;;;;2.80;2.22;;;-0.60;99.90;;;;;;4965268;28;20095;-64
2021/01/16 02:55:24;;;;;;;2.88;2.15;;;-0.60;99.90;;;;;;4964373;28;20565;-66
2021/01/16 02:57:50;;;;;;;2.75;2.25;;;-0.50;99.90;;;;;;4963202;28;20101;-65
2021/01/16 03:00:20;;;;;;;3.13;1.88;;;-0.60;99.90;;;;;;4966510;28;20780;-65
2021/01/16 03:02:47;;;;;;;3.78;1.70;;;-0.50;99.90;;;;;;4965520;28;20134;-67
2021/01/16 03:05:14;;;;;;;10.07;2.58;;;-0.50;99.90;;;;;;4965168;28;20051;-65
2021/01/16 03:07:41;;;;;;;4.20;1.83;;;-0.50;99.90;;;;;;4964542;28;20087;-64
2021/01/16 03:10:09;;;;;;;8.95;2.38;;;-0.50;99.90;;;;;;4965876;28;20114;-64
2021/01/16 03:12:37;;;;;;;3.17;2.05;;;-0.50;99.90;;;;;;4965600;28;20050;-66
2021/01/16 03:15:17;;;;;;;4.80;1.95;;;-0.50;99.90;;;;;;4962676;28;20046;-66
2021/01/16 03:17:49;;;;;;;4.38;2.35;;;-0.50;99.90;;;;;;4958271;28;20045;-64
2021/01/16 03:20:31;;;;;;;3.25;1.80;;;-0.50;99.90;;;;;;4965104;28;20861;-65
2021/01/16 03:22:59;;;;;;;3.40;1.80;;;-0.50;99.90;;;;;;4965440;28;20053;-66
2021/01/16 03:25:29;;;;;;;5.43;2.17;;;-0.50;99.90;;;;;;4963234;28;20133;-65
2021/01/16 03:27:57;;;;;;;4.88;2.70;;;-0.50;99.90;;;;;;4966457;28;20066;-67
2021/01/16 03:30:24;;;;;;;4.78;2.30;;;-0.60;99.90;;;;;;4965714;28;20179;-66
2021/01/16 03:32:52;;;;;;;3.75;1.88;;;-0.60;99.90;;;;;;4965877;28;20050;-66
2021/01/16 03:35:21;;;;;;;6.88;2.33;;;-0.50;99.90;;;;;;4963939;28;20050;-64
2021/01/16 03:37:52;;;;;;;6.68;1.95;;;-0.60;99.90;;;;;;4965047;28;20049;-64
2021/01/16 03:40:20;;;;;;;4.10;1.63;;;-0.60;99.90;;;;;;4964422;28;20047;-64
2021/01/16 03:42:46;;;;;;;2.78;1.92;;;-0.60;99.90;;;;;;4965663;28;20055;-67
2021/01/16 03:45:23;;;;;;;4.22;1.73;;;-0.60;99.90;;;;;;4965317;28;20065;-65
2021/01/16 03:47:50;;;;;;;6.13;2.13;;;-0.60;99.90;;;;;;4964042;28;20073;-64
2021/01/16 03:50:40;;;;;;;3.38;2.00;;;-0.60;99.90;;;;;;4965836;28;20610;-65
2021/01/16 03:53:06;;;;;;;3.75;2.28;;;-0.60;99.90;;;;;;4964558;28;20459;-65
2021/01/16 03:55:32;;;;;;;5.35;2.17;;;-0.70;99.90;;;;;;4963103;28;20134;-64
2021/01/16 03:57:59;;;;;;;5.25;2.20;;;-0.70;99.90;;;;;;4965421;28;20101;-64
2021/01/16 04:00:25;;;;;;;3.67;1.85;;;-0.60;99.90;;;;;;4965098;28;20780;-68
2021/01/16 04:02:52;;;;;;;4.50;2.63;;;-0.60;99.90;;;;;;4964670;28;20050;-66
2021/01/16 04:05:18;;;;;;;3.60;2.25;;;-0.60;99.90;;;;;;4964210;28;20054;-64
2021/01/16 04:07:49;;;;;;;3.22;1.92;;;-0.60;99.90;;;;;;4963976;28;20066;-64
2021/01/16 04:10:16;;;;;;;5.40;2.10;;;-0.60;99.90;;;;;;4963495;28;20275;-67
2021/01/16 04:12:42;;;;;;;3.72;2.00;;;-0.50;99.90;;;;;;4959327;28;20517;-65
2021/01/16 04:15:09;;;;;;;3.17;2.08;;;-0.50;99.90;;;;;;4965116;28;20505;-65
2021/01/16 04:17:35;;;;;;;4.30;2.20;;;-0.50;99.90;;;;;;4962899;28;20050;-65
2021/01/16 04:20:03;;;;;;;4.25;1.67;;;-0.40;99.90;;;;;;4965092;28;20175;-67
2021/01/16 04:22:30;;;;;;;2.33;1.70;;;-0.50;99.90;;;;;;4964197;28;20136;-66
2021/01/16 04:24:56;;;;;;;2.53;1.95;;;-0.40;99.90;;;;;;4964558;28;20452;-68
2021/01/16 04:27:23;;;;;;;4.95;2.03;;;-0.40;99.90;;;;;;4963319;28;20395;-65
2021/01/16 04:29:49;;;;;;;3.40;1.30;;;-0.40;99.90;;;;;;4964455;28;20059;-64
2021/01/16 04:32:15;;;;;;;3.55;2.05;;;-0.40;99.90;;;;;;4964596;28;20058;-64
2021/01/16 04:34:42;;;;;;;20.90;2.63;;;-0.40;99.90;;;;;;4965091;28;20537;-65
2021/01/16 04:37:08;;;;;;;4.22;2.33;;;-0.50;99.90;;;;;;4962963;28;20051;-66
2021/01/16 04:39:35;;;;;;;4.95;2.20;;;-0.50;99.90;;;;;;4962487;28;20049;-64
2021/01/16 04:42:03;;;;;;;3.15;1.80;;;-0.50;99.90;;;;;;4963790;28;20205;-64
2021/01/16 04:44:34;;;;;;;2.67;1.73;;;-0.40;99.90;;;;;;4964897;28;20588;-64
2021/01/16 04:47:03;;;;;;;3.63;1.63;;;-0.40;99.90;;;;;;4963425;28;20507;-66
2021/01/16 04:49:31;;;;;;;1.67;1.40;;;-0.40;99.90;;;;;;4963080;28;20107;-65
2021/01/16 04:51:58;;;;;;;5.18;1.67;;;-0.50;99.90;;;;;;4963959;28;20049;-67
2021/01/16 04:54:27;;;;;;;2.53;2.15;;;-0.40;99.90;;;;;;4963698;28;20431;-64
2021/01/16 04:56:54;;;;;;;3.03;1.55;;;-0.40;99.90;;;;;;4963918;28;20046;-64
2021/01/16 04:59:20;;;;;;;5.30;2.10;;;-0.50;99.90;;;;;;4964976;28;20110;-64
2021/01/16 05:01:47;;;;;;;2.42;1.92;;;-0.40;99.90;;;;;;4963921;28;20043;-64
2021/01/16 05:04:16;;;;;;;3.60;1.65;;;-0.40;99.90;;;;;;4965189;28;20130;-64
2021/01/16 05:06:46;;;;;;;2.60;1.98;;;-0.40;99.90;;;;;;4964409;28;20038;-66
2021/01/16 05:09:13;;;;;;;2.35;1.60;;;-0.40;99.90;;;;;;4963849;28;20066;-65
2021/01/16 05:11:58;;;;;;;5.35;2.10;;;-0.30;99.90;;;;;;4962859;28;20074;-66
2021/01/16 05:14:33;;;;;;;7.22;1.70;;;-0.40;99.90;;;;;;4962493;28;20401;-68
2021/01/16 05:17:00;;;;;;;3.60;3.05;;;-0.30;99.90;;;;;;4964962;28;20134;-66
2021/01/16 05:19:33;;;;;;;2.33;1.73;;;-0.30;99.90;;;;;;4962657;28;20042;-66
2021/01/16 05:22:01;;;;;;;3.15;1.63;;;-0.30;99.90;;;;;;4962296;28;20094;-68
2021/01/16 05:24:28;;;;;;;2.80;1.88;;;-0.20;99.90;;;;;;4963010;28;20811;-68
2021/01/16 05:27:00;;;;;;;3.13;1.60;;;-0.30;99.90;;;;;;4963889;28;20180;-64
2021/01/16 05:29:28;;;;;;;4.82;2.33;;;-0.20;99.90;;;;;;4962998;28;20141;-65
2021/01/16 05:31:56;;;;;;;2.50;1.63;;;-0.20;99.90;;;;;;4959075;28;20470;-64
2021/01/16 05:34:25;;;;;;;7.20;1.80;;;-0.20;99.90;;;;;;4961677;28;20712;-65
2021/01/16 05:36:52;;;;;;;4.28;1.42;;;-0.20;99.90;;;;;;4963711;28;20495;-66
2021/01/16 05:39:20;;;;;;;4.50;1.45;;;-0.10;99.90;;;;;;4959651;28;20070;-65
2021/01/16 05:41:47;;;;;;;2.10;1.73;;;-0.10;99.90;;;;;;4963169;28;20077;-65
2021/01/16 05:44:15;;;;;;;6.35;2.90;;;0.00;99.90;;;;;;4963661;28;20051;-67
2021/01/16 05:46:46;;;;;;;2.97;2.08;;;0.00;99.90;;;;;;4963580;28;20055;-68
2021/01/16 05:49:18;;;;;;;3.67;2.00;;;0.00;99.90;;;;;;4961967;28;20054;-66
2021/01/16 05:51:46;;;;;;;4.22;1.60;;;0.00;99.90;;;;;;4967598;28;20129;-65
2021/01/16 05:54:13;;;;;;;4.22;2.08;;;0.10;99.90;;;;;;4966289;28;20047;-70
2021/01/16 05:56:41;;;;;;;3.67;1.67;;;0.10;99.90;;;;;;4967818;28;20508;-66
2021/01/16 05:59:11;;;;;;;3.83;2.45;;;0.20;99.90;;;;;;4965844;28;20050;-67
2021/01/16 06:01:39;;;;;;;3.00;1.95;;;0.20;99.90;;;;;;4965682;28;20752;-67
2021/01/16 06:04:06;;;;;;;3.83;2.15;;;0.20;99.90;;;;;;4966896;28;20062;-65
2021/01/16 06:06:34;;;;;;;3.83;1.67;;;0.30;99.90;;;;;;4967535;28;20085;-67
2021/01/16 06:09:03;;;;;;;3.13;1.67;;;0.30;99.90;;;;;;4965490;28;20137;-67
2021/01/16 06:11:38;;;;;;;2.25;1.60;;;0.40;99.90;;;;;;4965579;28;20154;-67
2021/01/16 06:14:11;;;;;;;6.18;1.75;;;0.40;99.90;;;;;;4966729;28;20050;-66
2021/01/16 06:16:48;;;;;;;3.85;2.20;;;0.40;99.90;;;;;;4967089;28;20056;-66
2021/01/16 06:19:19;;;;;;;2.60;1.58;;;0.40;99.90;;;;;;4964243;28;20137;-65
2021/01/16 06:21:47;;;;;;;6.95;2.00;;;0.40;99.90;;;;;;4967343;28;20125;-65
2021/01/16 06:24:18;;;;;;;7.93;2.30;;;0.50;99.90;;;;;;4966098;28;20134;-68
2021/01/16 06:26:57;;;;;;;7.75;3.33;;;0.50;99.90;;;;;;4966349;28;20415;-66
2021/01/16 06:29:31;;;;;;;3.97;2.03;;;0.50;99.90;;;;;;4955181;28;20059;-67
2021/01/16 06:32:07;;;;;;;2.28;1.35;;;0.50;99.90;;;;;;4965656;28;20047;-69
2021/01/16 06:34:39;;;;;;;2.55;1.88;;;0.60;99.90;;;;;;4967134;28;20058;-65
2021/01/16 06:37:08;;;;;;;3.47;1.40;;;0.60;99.90;;;;;;4965373;28;20133;-65
2021/01/16 06:39:38;;;;;;;3.10;2.50;;;0.70;99.90;;;;;;4965120;28;20050;-66
2021/01/16 06:42:10;;;;;;;4.07;1.95;;;0.70;99.90;;;;;;4964734;28;20067;-65
2021/01/16 06:44:37;;;;;;;3.63;2.13;;;0.70;99.90;;;;;;4967033;28;20097;-68
2021/01/16 06:47:05;;;;;;;3.17;2.72;;;0.70;99.90;;;;;;4965964;28;20038;-65
2021/01/16 06:49:33;;;;;;;6.55;1.95;;;0.70;99.90;;;;;;4965352;28;20475;-65
2021/01/16 06:52:09;;;;;;;5.82;1.75;;;0.70;99.90;;;;;;4965875;28;20452;-69
2021/01/16 06:54:36;;;;;;;2.50;1.55;;;0.70;99.90;;;;;;4965210;28;20058;-67
2021/01/16 06:57:04;;;;;;;5.50;1.80;;;0.70;99.90;;;;;;4966249;28;20439;-66
2021/01/16 06:59:32;;;;;;;3.30;2.28;;;0.80;99.90;;;;;;4964680;28;20050;-68
2021/01/16 07:01:59;;;;;;;3.83;2.08;;;0.80;99.90;;;;;;4965173;28;20058;-71
2021/01/16 07:04:28;;;;;;;9.35;1.92;;;0.80;99.90;;;;;;4966263;28;20042;-69
2021/01/16 07:06:55;;;;;;;3.10;2.00;;;0.80;99.90;;;;;;4966542;28;20120;-66
2021/01/16 07:09:23;;;;;;;2.88;1.88;;;0.90;99.90;;;;;;4962732;28;20758;-65
2021/01/16 07:11:52;;;;;;;3.63;1.67;;;1.00;99.90;;;;;;4965862;28;20114;-65
2021/01/16 07:14:19;;;;;;;3.80;2.00;;;1.00;99.90;;;;;;4965576;28;20393;-65
2021/01/16 07:16:47;;;;;;;4.03;1.73;;;0.90;99.90;;;;;;4966004;28;20043;-66
2021/01/16 07:19:20;;;;;;;5.53;1.65;;;1.00;99.90;;;;;;4965956;28;20047;-67
2021/01/16 07:21:48;;;;;;;4.95;2.00;;;1.00;99.90;;;;;;4964470;28;20077;-65
2021/01/16 07:24:16;;;;;;;7.93;2.15;;;1.00;99.90;;;;;;4964839;28;20467;-66
2021/01/16 07:26:50;;;;;;;5.43;1.77;;;1.10;99.90;;;;;;4964972;28;20538;-67
2021/01/16 07:29:17;;;;;;;3.83;1.48;;;1.20;99.90;;;;;;4962793;28;20117;-67
2021/01/16 07:31:46;;;;;;;4.78;1.70;;;1.30;99.90;;;;;;4960722;28;20054;-68
2021/01/16 07:34:13;;;;;;;3.60;1.38;;;1.30;99.90;;;;;;4961842;28;20070;-66
2021/01/16 07:36:40;;;;;;;5.45;1.70;;;1.30;99.90;;;;;;4965607;28;20125;-67
2021/01/16 07:39:08;;;;;;;3.75;1.73;;;1.40;99.90;;;;;;4964629;28;20055;-66
2021/01/16 07:41:36;;;;;;;4.65;1.83;;;1.40;99.90;;;;;;4960703;28;20046;-65
2021/01/16 07:44:10;;;;;;;8.88;3.95;;;1.50;99.90;;;;;;4964610;28;20494;-67
2021/01/16 07:46:39;;;;;;;4.03;1.08;;;1.50;99.90;;;;;;4964616;28;20608;-70
2021/01/16 07:49:07;;;;;;;6.30;1.65;;;1.60;99.90;;;;;;4964261;28;20078;-67
2021/01/16 07:51:38;;;;;;;5.45;1.20;;;1.60;99.90;;;;;;4963953;28;20224;-66
2021/01/16 07:54:07;;;;;;;2.85;1.02;;;1.60;99.90;;;;;;4963142;28;20070;-67
2021/01/16 07:56:43;;;;;;;2.42;1.35;;;1.60;99.90;;;;;;4963845;28;20138;-66
2021/01/16 07:59:20;;;;;;;1.65;0.90;;;1.60;99.90;;;;;;4963972;28;20039;-66
2021/01/16 08:02:18;;;;;;;1.95;0.95;;;1.60;99.90;;;;;;4963052;28;20125;-66
2021/01/16 08:05:04;;;;;;;1.95;1.00;;;1.60;99.90;;;;;;4963171;28;20058;-68
2021/01/16 08:08:03;;;;;;;6.60;1.23;;;1.60;99.90;;;;;;4959514;28;20050;-68
2021/01/16 08:10:33;;;;;;;2.28;0.93;;;1.50;99.90;;;;;;4963671;28;20046;-68
2021/01/16 08:13:03;;;;;;;2.70;1.00;;;1.50;99.90;;;;;;4960634;28;20522;-66
2021/01/16 08:15:30;;;;;;;6.43;1.13;;;1.50;99.90;;;;;;4962862;28;20050;-66
2021/01/16 08:18:03;;;;;;;3.15;1.30;;;1.40;99.90;;;;;;4963170;28;20254;-71
2021/01/16 08:20:46;;;;;;;8.90;2.85;;;1.40;99.90;;;;;;4961539;28;20043;-68
2021/01/16 08:23:22;;;;;;;2.65;1.25;;;1.50;99.90;;;;;;4962608;28;20058;-69
2021/01/16 08:25:49;;;;;;;2.40;1.20;;;1.50;99.90;;;;;;4962295;28;20101;-69
2021/01/16 08:28:26;;;;;;;2.95;1.48;;;1.50;99.90;;;;;;4961497;28;20070;-66
2021/01/16 08:30:53;;;;;;;4.80;0.70;;;1.40;99.90;;;;;;4964038;28;20043;-70
2021/01/16 08:33:34;;;;;;;2.40;1.35;;;1.40;99.90;;;;;;4961767;28;20454;-67
2021/01/16 08:36:18;;;;;;;8.27;0.93;;;1.40;99.90;;;;;;4963637;28;20074;-72
2021/01/16 08:38:45;;;;;;;2.13;0.88;;;1.40;99.90;;;;;;4961848;28;20046;-67
2021/01/16 08:41:21;;;;;;;1.42;0.90;;;1.30;99.90;;;;;;4963794;28;20050;-69
2021/01/16 08:43:57;;;;;;;0.57;0.40;;;1.30;99.90;;;;;;4961857;28;20541;-73
2021/01/16 08:46:32;;;;;;;1.08;0.68;;;1.40;99.90;;;;;;4962553;28;20055;-68
2021/01/16 08:49:14;;;;;;;4.00;0.80;;;1.40;99.90;;;;;;4962133;28;20667;-69
2021/01/16 08:51:41;;;;;;;1.75;0.55;;;1.40;99.90;;;;;;4955677;28;20487;-70
2021/01/16 08:54:24;;;;;;;0.90;0.40;;;1.40;99.90;;;;;;4962125;28;20189;-68
2021/01/16 08:57:12;;;;;;;3.22;0.98;;;1.40;99.90;;;;;;4963462;28;20054;-69
2021/01/16 08:59:39;;;;;;;0.90;0.60;;;1.40;99.90;;;;;;4962023;28;20109;-69
2021/01/16 09:02:16;;;;;;;2.70;0.50;;;1.40;99.90;;;;;;4963437;28;20058;-66
2021/01/16 09:04:44;;;;;;;0.52;0.47;;;1.30;99.90;;;;;;4962909;28;20047;-71
2021/01/16 09:07:11;;;;;;;1.67;0.40;;;1.40;99.90;;;;;;4962564;28;20058;-70
2021/01/16 09:09:38;;;;;;;3.33;0.40;;;1.30;99.90;;;;;;4960999;28;20046;-71
2021/01/16 09:12:06;;;;;;;1.73;1.58;;;1.40;99.90;;;;;;4960032;28;20098;-66
2021/01/16 09:14:33;;;;;;;1.73;0.55;;;1.40;99.90;;;;;;4963068;28;20046;-68
2021/01/16 09:17:23;;;;;;;0.82;0.50;;;1.40;99.90;;;;;;4962597;28;20055;-69
2021/01/16 09:19:53;;;;;;;4.75;1.02;;;1.40;99.90;;;;;;4959612;28;20061;-71
2021/01/16 09:22:26;;;;;;;0.35;0.22;;;1.40;99.90;;;;;;4962362;28;20328;-68
2021/01/16 09:24:53;;;;;;;0.75;0.40;;;1.40;99.90;;;;;;4961548;28;20062;-66
2021/01/16 09:27:27;;;;;;;0.90;0.50;;;1.30;99.90;;;;;;4961023;28;20509;-71
2021/01/16 09:29:55;;;;;;;0.68;0.40;;;1.30;99.90;;;;;;4962196;28;20689;-67
2021/01/16 09:32:29;;;;;;;0.47;0.28;;;1.30;99.90;;;;;;4962848;28;20130;-66
2021/01/16 09:34:57;;;;;;;2.10;0.77;;;1.30;99.90;;;;;;4961981;28;20039;-73
2021/01/16 09:37:26;;;;;;;0.45;0.38;;;1.30;99.90;;;;;;4960402;28;20122;-68
2021/01/16 09:40:04;;;;;;;1.83;0.60;;;1.30;99.90;;;;;;4963372;28;20049;-70
2021/01/16 09:42:40;;;;;;;1.05;0.60;;;1.30;99.90;;;;;;4961924;28;20065;-66
2021/01/16 09:45:07;;;;;;;2.83;1.75;;;1.40;99.90;;;;;;4962487;28;20149;-70
2021/01/16 09:47:34;;;;;;;0.82;0.50;;;1.40;99.90;;;;;;4961171;28;20944;-69
2021/01/16 09:50:00;;;;;;;1.63;0.82;;;1.40;99.90;;;;;;4963064;28;20395;-69
2021/01/16 09:52:30;;;;;;;3.83;0.70;;;1.40;99.90;;;;;;4961741;28;20047;-70
2021/01/16 09:54:58;;;;;;;1.25;0.70;;;1.40;99.90;;;;;;4962805;28;20482;-69
2021/01/16 09:57:38;;;;;;;1.33;0.90;;;1.40;99.90;;;;;;4960939;28;20049;-68
2021/01/16 10:00:12;;;;;;;1.02;0.88;;;1.40;99.90;;;;;;4962957;28;20086;-66
2021/01/16 10:02:41;;;;;;;0.80;0.65;;;1.50;99.90;;;;;;4960394;28;20113;-71
2021/01/16 10:05:27;;;;;;;1.27;0.73;;;1.50;99.90;;;;;;4955372;28;20078;-67
2021/01/16 10:07:54;;;;;;;1.02;0.65;;;1.50;99.90;;;;;;4959885;28;20113;-67
2021/01/16 10:10:21;;;;;;;1.05;0.93;;;1.50;99.90;;;;;;4961037;28;20104;-66
2021/01/16 10:12:49;;;;;;;2.00;1.40;;;1.50;99.90;;;;;;4961567;28;20399;-69
2021/01/16 10:15:19;;;;;;;2.40;0.77;;;1.50;99.90;;;;;;4960100;28;20129;-66
2021/01/16 10:17:56;;;;;;;2.58;0.63;;;1.50;99.90;;;;;;4961307;28;20709;-66
2021/01/16 10:20:35;;;;;;;1.25;1.02;;;1.60;99.90;;;;;;4960595;28;20553;-69
2021/01/16 10:23:10;;;;;;;2.45;0.85;;;1.60;99.90;;;;;;4959529;28;20074;-67
2021/01/16 10:25:40;;;;;;;0.82;0.63;;;1.60;99.90;;;;;;4960871;28;20050;-69
2021/01/16 10:28:11;;;;;;;2.40;0.60;;;1.50;99.90;;;;;;4961669;28;20070;-67
2021/01/16 10:30:51;;;;;;;1.58;1.00;;;1.40;99.90;;;;;;4962913;28;20043;-67
2021/01/16 10:33:21;;;;;;;2.55;1.15;;;1.40;99.90;;;;;;4960484;28;20054;-65
2021/01/16 10:36:04;;;;;;;1.65;1.05;;;1.40;99.90;;;;;;4964083;28;20841;-69
2021/01/16 10:38:43;;;;;;;1.23;1.02;;;1.50;99.90;;;;;;4965234;28;20050;-66
2021/01/16 10:41:15;;;;;;;4.78;0.93;;;1.40;99.90;;;;;;4964346;28;20051;-68
2021/01/16 10:43:43;;;;;;;0.88;0.60;;;1.50;99.90;;;;;;4961372;28;20047;-66
2021/01/16 10:46:12;;;;;;;2.15;0.55;;;1.50;99.90;;;;;;4965949;28;20086;-70
2021/01/16 10:48:40;;;;;;;1.08;0.50;;;1.40;99.90;;;;;;4962779;28;20109;-68
2021/01/16 10:51:10;;;;;;;1.38;1.27;;;1.40;99.90;;;;;;4965924;28;20058;-66
2021/01/16 10:53:41;;;;;;;0.60;0.60;;;1.40;99.90;;;;;;4959162;28;20053;-67
2021/01/16 10:56:23;;;;;;;0.82;0.80;;;1.50;99.90;;;;;;4964554;28;20314;-66
2021/01/16 10:58:50;;;;;;;1.10;0.88;;;1.50;99.90;;;;;;4965212;28;20062;-69
2021/01/16 11:01:58;;;;;;;2.00;0.50;;;1.50;99.90;;;;;;4961900;28;20101;-68
2021/01/16 11:04:29;;;;;;;1.63;0.38;;;1.60;99.90;;;;;;4964076;28;20045;-66
2021/01/16 11:06:58;;;;;;;;;;;1.60;99.90;;;;;;4966031;28;20051;-66
2021/01/16 11:09:34;;;;;;;1.30;0.80;;;1.60;99.90;;;;;;4963084;28;19922;-66
2021/01/16 11:12:05;;;;;;;0.52;0.52;;;1.50;99.90;;;;;;4963148;28;20419;-68
2021/01/16 11:14:43;;;;;;;3.58;1.45;;;1.50;99.90;;;;;;4965008;28;20081;-68
2021/01/16 11:17:11;;;;;;;1.42;0.75;;;1.50;99.90;;;;;;4957622;28;20097;-67
2021/01/16 11:19:44;;;;;;;2.08;0.88;;;1.50;99.90;;;;;;4963655;28;20051;-66
2021/01/16 11:22:15;;;;;;;2.65;0.80;;;1.40;99.90;;;;;;4963647;28;20081;-70
2021/01/16 11:24:53;;;;;;;2.65;1.23;;;1.40;99.90;;;;;;4964695;28;20049;-69
2021/01/16 11:27:27;;;;;;;1.92;1.00;;;1.40;99.90;;;;;;4963669;28;20237;-67
2021/01/16 11:30:03;;;;;;;2.95;1.35;;;1.40;99.90;;;;;;4961051;28;20039;-66
2021/01/16 11:32:37;;;;;;;1.55;1.00;;;1.50;99.90;;;;;;4964603;28;20054;-65
2021/01/16 11:35:08;;;;;;;0.70;0.63;;;1.50;99.90;;;;;;4964364;28;20493;-67
2021/01/16 11:37:48;;;;;;;0.55;0.40;;;1.50;99.90;;;;;;4963076;28;20098;-67
2021/01/16 11:40:28;;;;;;;0.90;0.65;;;1.50;99.90;;;;;;4964289;28;20094;-68
2021/01/16 11:43:11;;;;;;;0.50;0.22;;;1.40;99.90;;;;;;4964926;28;20043;-66
2021/01/16 11:45:37;;;;;;;0.73;0.43;;;1.30;99.90;;;;;;4963239;28;20042;-66
2021/01/16 11:48:05;;;;;;;0.60;0.45;;;1.30;99.90;;;;;;4963813;28;20043;-67
2021/01/16 11:50:34;;;;;;;1.75;1.30;;;1.30;99.90;;;;;;4962129;28;20061;-69
2021/01/16 11:53:10;;;;;;;1.02;0.70;;;1.30;99.90;;;;;;4964187;28;20043;-68
2021/01/16 11:55:38;;;;;;;0.70;0.50;;;1.20;99.90;;;;;;4962340;28;20058;-69
2021/01/16 11:58:05;;;;;;;1.23;0.50;;;1.20;99.90;;;;;;4964651;28;20054;-67
2021/01/16 12:00:32;;;;;;;1.30;0.63;;;1.20;99.90;;;;;;4963712;28;20050;-67
2021/01/16 12:03:16;;;;;;;0.60;0.45;;;1.20;99.90;;;;;;4960947;28;20065;-67
2021/01/16 12:05:43;;;;;;;0.60;0.60;;;1.20;99.90;;;;;;4964322;28;20042;-68
2021/01/16 12:08:12;;;;;;;1.15;0.50;;;1.20;99.90;;;;;;4960648;28;20562;-68
2021/01/16 12:10:39;;;;;;;1.25;0.60;;;1.20;99.90;;;;;;4963493;28;20051;-66
2021/01/16 12:13:10;;;;;;;4.97;0.80;;;1.20;99.90;;;;;;4964309;28;20406;-68
2021/01/16 12:15:37;;;;;;;0.73;0.50;;;1.20;99.90;;;;;;4961754;28;20188;-67
2021/01/16 12:18:04;;;;;;;0.63;0.50;;;1.10;99.90;;;;;;4963367;28;20128;-65
2021/01/16 12:20:32;;;;;;;0.63;0.63;;;1.10;99.90;;;;;;4961772;28;20067;-66
2021/01/16 12:23:20;;;;;;;1.40;0.70;;;1.10;99.90;;;;;;4958381;28;20057;-67
2021/01/16 12:25:59;;;;;;;0.52;0.43;;;1.10;99.90;;;;;;4963371;28;20114;-69
2021/01/16 12:28:47;;;;;;;0.80;0.80;;;1.00;99.90;;;;;;4962841;28;20054;-69
2021/01/16 12:31:19;;;;;;;1.13;0.80;;;1.00;99.90;;;;;;4962651;28;20047;-67
2021/01/16 12:33:46;;;;;;;2.05;0.75;;;1.00;99.90;;;;;;4961771;28;20054;-65
2021/01/16 12:36:12;;;;;;;1.05;0.43;;;1.00;99.90;;;;;;4963818;28;20525;-67
2021/01/16 12:38:39;;;;;;;1.25;0.57;;;0.90;99.90;;;;;;4962797;28;20454;-66
2021/01/16 12:41:05;;;;;;;3.33;0.70;;;0.90;99.90;;;;;;4963340;28;20085;-66
2021/01/16 12:43:32;;;;;;;1.80;1.13;;;0.90;99.90;;;;;;4962012;28;20600;-68
2021/01/16 12:46:06;;;;;;;1.20;0.65;;;0.90;99.90;;;;;;4964049;28;20050;-66
2021/01/16 12:48:33;;;;;;;3.65;2.00;;;0.90;99.90;;;;;;4962711;28;20422;-66
2021/01/16 12:51:04;;;;;;;1.23;0.93;;;0.80;99.90;;;;;;4963718;28;20046;-66
2021/01/16 12:53:31;;;;;;;1.40;0.90;;;0.80;99.90;;;;;;4961617;28;20050;-70
2021/01/16 12:55:58;;;;;;;1.75;0.95;;;0.70;99.90;;;;;;4962940;28;20078;-68
2021/01/16 12:58:25;;;;;;;2.42;1.67;;;0.70;99.90;;;;;;4963084;28;20047;-65
2021/01/16 13:00:52;;;;;;;2.25;2.03;;;0.70;99.90;;;;;;4962681;28;20051;-68
2021/01/16 13:03:19;;;;;;;2.47;2.28;;;0.60;99.90;;;;;;4960752;28;20066;-66
2021/01/16 13:05:46;;;;;;;3.60;2.42;;;0.70;99.90;;;;;;4963052;28;20078;-67
2021/01/16 13:08:17;;;;;;;2.08;1.88;;;0.60;99.90;;;;;;4962723;28;20090;-66
2021/01/16 13:10:45;;;;;;;7.68;3.45;;;0.60;99.90;;;;;;4963097;28;20754;-67
2021/01/16 13:13:15;;;;;;;3.67;2.30;;;0.60;99.90;;;;;;4963062;28;20133;-69